Time,TemperatureF,DewpointF,PressureIn,WindDirection,WindDirectionDegrees,WindSpeedMPH,WindSpeedGustMPH,Humidity,HourlyPrecipIn,Conditions,Clouds,dailyrainin,SoftwareType,DateUTC
2013-10-14 00:00:00,35.8,-15.5,30.18,South,180,0.0,0.0,1,0.00,,,0.00,WUHU216HW,2013-10-14 07:00:00,
2013-10-14 00:05:00,35.8,-15.5,30.18,South,180,0.0,0.0,1,0.00,,,0.00,WUHU216HW,2013-10-14 07:05:00,
2013-10-14 00:10:00,35.6,-15.7,30.18,South,180,0.0,0.0,1,0.00,,,0.00,WUHU216HW,2013-10-14 07:10:00,
2013-10-14 00:15:00,35.3,-15.9,30.18,South,180,0.0,0.0,1,0.00,,,0.00,WUHU216HW,2013-10-14 07:15:00,
2013-10-14 00:20:00,35.1,-16.1,30.18,South,180,0.0,0.0,1,0.00,,,0.00,WUHU216HW,2013-10-14 07:20:00,
2013-10-14 00:25:00,35.1,-16.1,30.18,South,180,0.0,0.0,1,0.00,,,0.00,WUHU216HW,2013-10-14 07:25:00,
2013-10-14 00:30:00,34.9,-16.2,30.18,South,180,0.0,0.0,1,0.00,,,0.00,WUHU216HW,2013-10-14 07:30:00,
2013-10-14 00:35:00,34.9,-16.2,30.18,South,180,0.0,0.0,1,0.00,,,0.00,WUHU216HW,2013-10-14 07:35:00,
2013-10-14 00:40:00,34.7,-16.4,30.18,South,180,0.0,0.0,1,0.00,,,0.00,WUHU216HW,2013-10-14 07:40:00,
2013-10-14 00:45:00,34.7,-16.4,30.19,South,180,0.0,0.0,1,0.00,,,0.00,WUHU216HW,2013-10-14 07:45:00,
2013-10-14 00:50:00,34.7,-16.4,30.18,South,180,0.0,0.0,1,0.00,,,0.00,WUHU216HW,2013-10-14 07:50:00,
2013-10-14 00:55:00,34.6,-16.6,30.18,South,180,0.0,0.0,1,0.00,,,0.00,WUHU216HW,2013-10-14 07:55:00,
2013-10-14 01:00:00,34.4,-16.6,30.19,South,180,0.0,0.0,1,0.00,,,0.00,WUHU216HW,2013-10-14 08:00:00,
2013-10-14 01:05:00,34.4,-16.6,30.19,North,0,0.0,0.0,1,0.00,,,0.00,WUHU216HW,2013-10-14 08:05:00,
2013-10-14 01:10:00,34.6,-16.6,30.19,North,0,0.0,0.0,1,0.00,,,0.00,WUHU216HW,2013-10-14 08:10:00,
2013-10-14 01:15:00,34.6,-16.6,30.19,South,180,0.0,0.0,1,0.00,,,0.00,WUHU216HW,2013-10-14 08:15:00,
2013-10-14 01:20:00,34.2,-16.8,30.19,South,180,0.0,0.0,1,0.00,,,0.00,WUHU216HW,2013-10-14 08:20:00,
2013-10-14 01:25:00,34.2,-16.8,30.19,South,180,0.0,0.0,1,0.00,,,0.00,WUHU216HW,2013-10-14 08:25:00,
2013-10-14 01:30:00,34.0,-16.9,30.19,South,180,0.0,0.0,1,0.00,,,0.00,WUHU216HW,2013-10-14 08:30:00,
2013-10-14 01:35:00,33.8,-17.1,30.19,South,180,0.0,0.0,1,0.00,,,0.00,WUHU216HW,2013-10-14 08:35:00,
2013-10-14 01:40:00,33.8,-17.1,30.19,South,180,0.0,0.0,1,0.00,,,0.00,WUHU216HW,2013-10-14 08:40:00,
2013-10-14 01:45:00,33.8,-17.1,30.19,South,180,0.0,0.0,1,0.00,,,0.00,WUHU216HW,2013-10-14 08:45:00,
2013-10-14 01:50:00,33.8,-17.1,30.19,South,180,0.0,0.0,1,0.00,,,0.00,WUHU216HW,2013-10-14 08:50:00,
2013-10-14 01:55:00,33.5,-17.4,30.19,South,180,0.0,0.0,1,0.00,,,0.00,WUHU216HW,2013-10-14 08:55:00,
2013-10-14 02:00:00,33.5,-17.4,30.19,South,180,0.0,0.0,1,0.00,,,0.00,WUHU216HW,2013-10-14 09:00:00,
2013-10-14 02:05:00,33.5,-17.4,30.19,South,180,0.0,0.0,1,0.00,,,0.00,WUHU216HW,2013-10-14 09:05:00,
2013-10-14 02:10:00,33.3,-17.4,30.19,South,180,0.0,0.0,1,0.00,,,0.00,WUHU216HW,2013-10-14 09:10:00,
2013-10-14 02:15:00,33.3,-17.4,30.19,South,180,0.0,0.0,1,0.00,,,0.00,WUHU216HW,2013-10-14 09:15:00,
2013-10-14 02:20:00,33.5,-17.4,30.19,South,180,0.0,0.0,1,0.00,,,0.00,WUHU216HW,2013-10-14 09:20:00,
2013-10-14 02:25:00,33.5,-17.4,30.19,South,180,0.0,0.0,1,0.00,,,0.00,WUHU216HW,2013-10-14 09:25:00,
2013-10-14 02:30:00,33.5,-17.4,30.19,North,0,0.0,0.0,1,0.00,,,0.00,WUHU216HW,2013-10-14 09:30:00,
2013-10-14 02:35:00,33.5,-17.4,30.19,North,0,0.0,0.0,1,0.00,,,0.00,WUHU216HW,2013-10-14 09:35:00,
2013-10-14 02:40:00,33.5,-17.4,30.19,South,180,0.0,0.0,1,0.00,,,0.00,WUHU216HW,2013-10-14 09:40:00,
2013-10-14 02:45:00,33.5,-17.4,30.19,South,180,0.0,0.0,1,0.00,,,0.00,WUHU216HW,2013-10-14 09:45:00,
2013-10-14 02:50:00,33.3,-17.4,30.19,South,180,0.0,0.0,1,0.00,,,0.00,WUHU216HW,2013-10-14 09:50:00,
2013-10-14 02:55:00,32.9,-17.7,30.19,South,180,0.0,0.0,1,0.00,,,0.00,WUHU216HW,2013-10-14 09:55:00,
2013-10-14 03:00:00,32.8,-17.8,30.19,South,180,0.0,0.0,1,0.00,,,0.00,WUHU216HW,2013-10-14 10:00:00,
2013-10-14 03:05:00,32.8,-17.8,30.19,South,180,0.0,0.0,1,0.00,,,0.00,WUHU216HW,2013-10-14 10:05:00,
2013-10-14 03:10:00,32.8,-17.8,30.19,South,180,0.0,0.0,1,0.00,,,0.00,WUHU216HW,2013-10-14 10:10:00,
2013-10-14 03:15:00,32.8,-17.8,30.19,South,180,0.0,0.0,1,0.00,,,0.00,WUHU216HW,2013-10-14 10:15:00,
2013-10-14 03:20:00,32.8,-17.8,30.18,South,180,0.0,0.0,1,0.00,,,0.00,WUHU216HW,2013-10-14 10:20:00,
2013-10-14 03:25:00,32.4,-18.1,30.19,South,180,0.0,0.0,1,0.00,,,0.00,WUHU216HW,2013-10-14 10:25:00,
2013-10-14 03:30:00,32.4,-18.1,30.19,South,180,0.0,0.0,1,0.00,,,0.00,WUHU216HW,2013-10-14 10:30:00,
2013-10-14 03:34:00,32.4,-18.1,30.18,South,180,0.0,0.0,1,0.00,,,0.00,WUHU216HW,2013-10-14 10:34:00,
2013-10-14 03:39:00,32.6,-18.0,30.19,South,180,0.0,0.0,1,0.00,,,0.00,WUHU216HW,2013-10-14 10:39:00,
2013-10-14 03:44:00,32.8,-17.8,30.19,South,180,0.0,0.0,1,0.00,,,0.00,WUHU216HW,2013-10-14 10:44:00,
2013-10-14 03:49:00,32.4,-18.1,30.19,South,180,0.0,0.0,1,0.00,,,0.00,WUHU216HW,2013-10-14 10:49:00,
2013-10-14 03:54:00,32.2,-18.3,30.18,South,180,0.0,0.0,1,0.00,,,0.00,WUHU216HW,2013-10-14 10:54:00,
2013-10-14 03:59:00,32.0,-18.4,30.18,South,180,0.0,0.0,1,0.00,,,0.00,WUHU216HW,2013-10-14 10:59:00,
2013-10-14 04:04:00,32.0,-18.4,30.18,South,180,0.0,0.0,1,0.00,,,0.00,WUHU216HW,2013-10-14 11:04:00,
2013-10-14 04:09:00,31.9,-18.5,30.18,South,180,0.0,0.0,1,0.00,,,0.00,WUHU216HW,2013-10-14 11:09:00,
2013-10-14 04:14:00,31.7,-18.6,30.19,South,180,0.0,0.0,1,0.00,,,0.00,WUHU216HW,2013-10-14 11:14:00,
2013-10-14 04:19:00,31.7,-18.6,30.19,South,180,0.0,0.0,1,0.00,,,0.00,WUHU216HW,2013-10-14 11:19:00,
2013-10-14 04:24:00,31.7,-18.6,30.19,South,180,0.0,0.0,1,0.00,,,0.00,WUHU216HW,2013-10-14 11:24:00,
2013-10-14 04:29:00,31.9,-18.5,30.19,South,180,0.0,0.0,1,0.00,,,0.00,WUHU216HW,2013-10-14 11:29:00,
2013-10-14 04:34:00,31.7,-18.6,30.19,South,180,0.0,0.0,1,0.00,,,0.00,WUHU216HW,2013-10-14 11:34:00,
2013-10-14 04:39:00,31.7,-18.6,30.19,South,180,0.0,0.0,1,0.00,,,0.00,WUHU216HW,2013-10-14 11:39:00,
2013-10-14 04:44:00,31.5,-18.8,30.19,South,180,0.0,0.0,1,0.00,,,0.00,WUHU216HW,2013-10-14 11:44:00,
2013-10-14 04:49:00,31.7,-18.6,30.19,North,0,0.0,0.0,1,0.00,,,0.00,WUHU216HW,2013-10-14 11:49:00,
2013-10-14 04:54:00,31.7,-18.6,30.19,North,0,0.0,0.0,1,0.00,,,0.00,WUHU216HW,2013-10-14 11:54:00,
2013-10-14 04:59:00,31.9,-18.5,30.19,South,180,0.0,0.0,1,0.00,,,0.00,WUHU216HW,2013-10-14 11:59:00,
2013-10-14 05:04:00,32.0,-18.4,30.19,North,0,0.0,0.0,1,0.00,,,0.00,WUHU216HW,2013-10-14 12:04:00,
2013-10-14 05:09:00,31.9,-18.5,30.19,North,0,0.0,0.0,1,0.00,,,0.00,WUHU216HW,2013-10-14 12:09:00,
2013-10-14 05:14:00,32.0,-18.4,30.19,South,180,0.0,0.0,1,0.00,,,0.00,WUHU216HW,2013-10-14 12:14:00,
2013-10-14 05:19:00,32.4,-18.1,30.19,South,180,0.0,0.0,1,0.00,,,0.00,WUHU216HW,2013-10-14 12:19:00,
2013-10-14 05:24:00,32.4,-18.1,30.20,South,180,0.0,0.0,1,0.00,,,0.00,WUHU216HW,2013-10-14 12:24:00,
2013-10-14 05:29:00,32.4,-18.1,30.19,South,180,0.0,0.0,1,0.00,,,0.00,WUHU216HW,2013-10-14 12:29:00,
2013-10-14 05:34:00,32.4,-18.1,30.19,South,180,0.0,0.0,1,0.00,,,0.00,WUHU216HW,2013-10-14 12:34:00,
2013-10-14 05:39:00,32.0,-18.4,30.20,South,180,0.0,0.0,1,0.00,,,0.00,WUHU216HW,2013-10-14 12:39:00,
2013-10-14 05:44:00,31.9,-18.5,30.20,South,180,0.0,0.0,1,0.00,,,0.00,WUHU216HW,2013-10-14 12:44:00,
2013-10-14 05:49:00,31.7,-18.6,30.20,South,180,0.0,0.0,1,0.00,,,0.00,WUHU216HW,2013-10-14 12:49:00,
2013-10-14 05:54:00,31.7,-18.6,30.20,South,180,0.0,0.0,1,0.00,,,0.00,WUHU216HW,2013-10-14 12:54:00,
2013-10-14 05:59:00,31.3,-18.9,30.20,South,180,0.0,0.0,1,0.00,,,0.00,WUHU216HW,2013-10-14 12:59:00,
2013-10-14 06:04:00,31.3,-18.9,30.20,South,180,0.0,0.0,1,0.00,,,0.00,WUHU216HW,2013-10-14 13:04:00,
2013-10-14 06:09:00,31.3,-18.9,30.21,South,180,0.0,0.0,1,0.00,,,0.00,WUHU216HW,2013-10-14 13:09:00,
2013-10-14 06:14:00,31.5,-18.8,30.21,South,180,0.0,0.0,1,0.00,,,0.00,WUHU216HW,2013-10-14 13:14:00,
2013-10-14 06:19:00,31.3,-18.9,30.21,South,180,0.0,0.0,1,0.00,,,0.00,WUHU216HW,2013-10-14 13:19:00,
2013-10-14 06:24:00,31.3,-18.9,30.21,South,180,0.0,0.0,1,0.00,,,0.00,WUHU216HW,2013-10-14 13:24:00,
2013-10-14 06:29:00,31.3,-18.9,30.21,South,180,0.0,0.0,1,0.00,,,0.00,WUHU216HW,2013-10-14 13:29:00,
2013-10-14 06:34:00,31.3,-18.9,30.21,South,180,0.0,0.0,1,0.00,,,0.00,WUHU216HW,2013-10-14 13:34:00,
2013-10-14 06:39:00,31.3,-18.9,30.21,South,180,0.0,0.0,1,0.00,,,0.00,WUHU216HW,2013-10-14 13:39:00,
2013-10-14 06:44:00,31.3,-18.9,30.21,South,180,0.0,0.0,1,0.00,,,0.00,WUHU216HW,2013-10-14 13:44:00,
2013-10-14 06:49:00,31.3,-18.9,30.21,South,180,0.0,0.0,1,0.00,,,0.00,WUHU216HW,2013-10-14 13:49:00,
2013-10-14 06:54:00,31.1,-19.1,30.21,South,180,0.0,0.0,1,0.00,,,0.00,WUHU216HW,2013-10-14 13:54:00,
2013-10-14 06:59:00,31.3,-18.9,30.21,South,180,0.0,0.0,1,0.00,,,0.00,WUHU216HW,2013-10-14 13:59:00,
2013-10-14 07:04:00,31.3,-18.9,30.21,South,180,0.0,0.0,1,0.00,,,0.00,WUHU216HW,2013-10-14 14:04:00,
2013-10-14 07:09:00,31.3,-18.9,30.21,South,180,0.0,0.0,1,0.00,,,0.00,WUHU216HW,2013-10-14 14:09:00,
2013-10-14 07:14:00,31.3,-18.9,30.21,South,180,0.0,0.0,1,0.00,,,0.00,WUHU216HW,2013-10-14 14:14:00,
2013-10-14 07:19:00,31.5,-18.8,30.22,South,180,0.0,0.0,1,0.00,,,0.00,WUHU216HW,2013-10-14 14:19:00,
2013-10-14 07:24:00,31.5,-18.8,30.21,North,0,0.0,0.0,1,0.00,,,0.00,WUHU216HW,2013-10-14 14:24:00,
2013-10-14 07:29:00,31.3,-18.9,30.22,South,180,0.0,0.0,1,0.00,,,0.00,WUHU216HW,2013-10-14 14:29:00,
2013-10-14 07:34:00,31.5,-18.8,30.22,North,0,0.0,0.0,1,0.00,,,0.00,WUHU216HW,2013-10-14 14:34:00,
2013-10-14 07:39:00,31.5,-18.8,30.22,South,180,0.0,0.0,1,0.00,,,0.00,WUHU216HW,2013-10-14 14:39:00,
2013-10-14 07:44:00,31.3,-18.9,30.22,South,180,0.0,0.0,1,0.00,,,0.00,WUHU216HW,2013-10-14 14:44:00,
2013-10-14 07:49:00,31.1,-19.1,30.22,South,180,0.0,0.0,1,0.00,,,0.00,WUHU216HW,2013-10-14 14:49:00,
2013-10-14 07:54:00,31.3,-18.9,30.22,South,180,0.0,0.0,1,0.00,,,0.00,WUHU216HW,2013-10-14 14:54:00,
2013-10-14 07:59:00,31.5,-18.8,30.22,South,180,0.0,0.0,1,0.00,,,0.00,WUHU216HW,2013-10-14 14:59:00,
2013-10-14 08:04:00,31.7,-18.6,30.22,South,180,0.0,0.0,1,0.00,,,0.00,WUHU216HW,2013-10-14 15:04:00,
2013-10-14 08:09:00,31.9,-18.5,30.22,South,180,0.0,0.0,1,0.00,,,0.00,WUHU216HW,2013-10-14 15:09:00,
2013-10-14 08:14:00,31.9,-18.5,30.22,South,180,0.0,0.0,1,0.00,,,0.00,WUHU216HW,2013-10-14 15:14:00,
2013-10-14 08:19:00,31.9,-18.5,30.22,South,180,0.0,0.0,1,0.00,,,0.00,WUHU216HW,2013-10-14 15:19:00,
2013-10-14 08:24:00,32.0,-18.4,30.22,NE,45,0.0,0.0,1,0.00,,,0.00,WUHU216HW,2013-10-14 15:24:00,
2013-10-14 08:29:00,32.2,-18.3,30.22,NE,45,0.0,0.0,1,0.00,,,0.00,WUHU216HW,2013-10-14 15:29:00,
2013-10-14 08:34:00,32.2,-18.3,30.22,SE,135,0.2,0.2,1,0.00,,,0.00,WUHU216HW,2013-10-14 15:34:00,
2013-10-14 08:39:00,32.6,-18.0,30.22,SE,135,0.2,0.2,1,0.00,,,0.00,WUHU216HW,2013-10-14 15:39:00,
2013-10-14 08:44:00,32.8,-17.8,30.23,SE,135,0.0,0.2,1,0.00,,,0.00,WUHU216HW,2013-10-14 15:44:00,
2013-10-14 08:49:00,32.9,-17.7,30.23,SE,135,0.0,0.2,1,0.00,,,0.00,WUHU216HW,2013-10-14 15:49:00,
2013-10-14 08:54:00,33.1,-17.6,30.23,North,0,0.0,0.0,1,0.00,,,0.00,WUHU216HW,2013-10-14 15:54:00,
2013-10-14 08:59:00,33.1,-17.6,30.23,North,0,0.0,0.0,1,0.00,,,0.00,WUHU216HW,2013-10-14 15:59:00,
2013-10-14 09:04:00,33.3,-17.4,30.23,SE,135,0.4,0.4,1,0.00,,,0.00,WUHU216HW,2013-10-14 16:04:00,
2013-10-14 09:09:00,33.5,-17.4,30.23,SE,135,0.0,0.4,1,0.00,,,0.00,WUHU216HW,2013-10-14 16:09:00,
2013-10-14 09:14:00,33.7,-17.2,30.23,SE,135,0.0,0.4,1,0.00,,,0.00,WUHU216HW,2013-10-14 16:14:00,
2013-10-14 09:19:00,34.4,-16.6,30.23,SE,135,0.0,0.0,1,0.00,,,0.00,WUHU216HW,2013-10-14 16:19:00,
2013-10-14 09:24:00,36.4,-15.1,30.23,SE,135,0.0,0.2,1,0.00,,,0.00,WUHU216HW,2013-10-14 16:24:00,
2013-10-14 09:29:00,38.0,-13.8,30.23,SE,135,0.0,0.2,1,0.00,,,0.00,WUHU216HW,2013-10-14 16:29:00,
2013-10-14 09:34:00,39.8,-12.3,30.23,SE,135,0.4,0.4,1,0.00,,,0.00,WUHU216HW,2013-10-14 16:34:00,
2013-10-14 09:39:00,41.4,-11.1,30.23,SE,135,0.0,0.4,1,0.00,,,0.00,WUHU216HW,2013-10-14 16:39:00,
2013-10-14 09:44:00,41.2,-11.2,30.23,SE,135,0.0,0.4,1,0.00,,,0.00,WUHU216HW,2013-10-14 16:44:00,
2013-10-14 09:49:00,40.5,-11.8,30.23,East,90,0.4,0.4,1,0.00,,,0.00,WUHU216HW,2013-10-14 16:49:00,
2013-10-14 09:54:00,40.7,-11.6,30.23,East,90,0.4,0.4,1,0.00,,,0.00,WUHU216HW,2013-10-14 16:54:00,
2013-10-14 09:59:00,42.8,-10.1,30.23,North,0,0.0,0.4,1,0.00,,,0.00,WUHU216HW,2013-10-14 16:59:00,
2013-10-14 10:04:00,44.3,-8.9,30.23,North,0,0.0,0.0,1,0.00,,,0.00,WUHU216HW,2013-10-14 17:04:00,
2013-10-14 10:09:00,44.6,-8.6,30.23,East,90,0.4,0.9,1,0.00,,,0.00,WUHU216HW,2013-10-14 17:09:00,
2013-10-14 10:14:00,44.3,-8.9,30.23,ENE,68,0.4,1.1,1,0.00,,,0.00,WUHU216HW,2013-10-14 17:14:00,
2013-10-14 10:19:00,44.3,-8.9,30.24,ENE,68,0.0,1.1,1,0.00,,,0.00,WUHU216HW,2013-10-14 17:19:00,
2013-10-14 10:24:00,44.3,-8.9,30.23,ENE,68,0.4,0.7,1,0.00,,,0.00,WUHU216HW,2013-10-14 17:24:00,
2013-10-14 10:29:00,44.3,-8.9,30.23,East,90,0.4,0.4,1,0.00,,,0.00,WUHU216HW,2013-10-14 17:29:00,
2013-10-14 10:34:00,44.6,-8.6,30.23,East,90,0.4,0.4,1,0.00,,,0.00,WUHU216HW,2013-10-14 17:34:00,
2013-10-14 10:39:00,45.4,-8.1,30.23,NE,45,0.4,0.9,1,0.00,,,0.00,WUHU216HW,2013-10-14 17:39:00,
2013-10-14 10:44:00,45.9,-7.6,30.23,ENE,68,0.4,0.9,1,0.00,,,0.00,WUHU216HW,2013-10-14 17:44:00,
2013-10-14 10:49:00,46.3,-7.4,30.23,ENE,68,1.1,1.1,1,0.00,,,0.00,WUHU216HW,2013-10-14 17:49:00,
2013-10-14 10:54:00,47.2,-6.7,30.23,ENE,68,0.9,1.3,1,0.00,,,0.00,WUHU216HW,2013-10-14 17:54:00,
2013-10-14 10:59:00,47.7,-6.2,30.23,ENE,68,0.7,1.3,1,0.00,,,0.00,WUHU216HW,2013-10-14 17:59:00,
2013-10-14 11:04:00,48.4,-5.7,30.23,ENE,68,0.4,0.9,1,0.00,,,0.00,WUHU216HW,2013-10-14 18:04:00,
2013-10-14 11:09:00,49.3,-5.0,30.23,East,90,1.1,1.1,1,0.00,,,0.00,WUHU216HW,2013-10-14 18:09:00,
2013-10-14 11:14:00,49.7,-4.8,30.23,East,90,1.1,1.1,1,0.00,,,0.00,WUHU216HW,2013-10-14 18:14:00,
2013-10-14 11:19:00,50.6,-4.0,30.23,North,0,0.0,1.1,1,0.00,,,0.00,WUHU216HW,2013-10-14 18:19:00,
2013-10-14 11:24:00,51.5,-3.3,30.23,North,0,0.0,0.0,1,0.00,,,0.00,WUHU216HW,2013-10-14 18:24:00,
2013-10-14 11:29:00,52.0,-2.9,30.23,ENE,68,0.7,1.1,1,0.00,,,0.00,WUHU216HW,2013-10-14 18:29:00,
2013-10-14 11:34:00,51.7,-3.2,30.23,West,270,0.9,1.1,1,0.00,,,0.00,WUHU216HW,2013-10-14 18:34:00,
2013-10-14 11:39:00,51.5,-3.3,30.23,NNW,338,1.3,1.3,1,0.00,,,0.00,WUHU216HW,2013-10-14 18:39:00,
2013-10-14 11:44:00,51.8,-3.1,30.23,NNE,23,1.8,1.8,1,0.00,,,0.00,WUHU216HW,2013-10-14 18:44:00,
2013-10-14 11:49:00,52.2,-2.8,30.23,North,0,2.7,2.7,1,0.00,,,0.00,WUHU216HW,2013-10-14 18:49:00,
2013-10-14 11:54:00,52.7,-2.3,30.23,NNW,338,1.8,2.7,1,0.00,,,0.00,WUHU216HW,2013-10-14 18:54:00,
2013-10-14 11:59:00,53.8,-1.4,30.23,NW,315,4.3,4.3,1,0.00,,,0.00,WUHU216HW,2013-10-14 18:59:00,
2013-10-14 12:04:00,53.5,-1.8,30.22,NW,315,1.1,4.3,1,0.00,,,0.00,WUHU216HW,2013-10-14 19:04:00,
2013-10-14 12:09:00,53.5,-1.8,30.22,NNE,23,1.6,4.3,1,0.00,,,0.00,WUHU216HW,2013-10-14 19:09:00,
2013-10-14 12:14:00,53.5,-1.8,30.22,ENE,68,0.7,3.4,1,0.00,,,0.00,WUHU216HW,2013-10-14 19:14:00,
2013-10-14 12:19:00,53.8,-1.4,30.22,WSW,248,0.9,3.4,1,0.00,,,0.00,WUHU216HW,2013-10-14 19:19:00,
2013-10-14 12:24:00,54.0,-1.3,30.22,West,270,1.8,2.2,1,0.00,,,0.00,WUHU216HW,2013-10-14 19:24:00,
2013-10-14 12:29:00,54.5,-0.9,30.22,WNW,293,4.7,4.7,1,0.00,,,0.00,WUHU216HW,2013-10-14 19:29:00,
2013-10-14 12:34:00,55.6,-0.1,30.22,North,0,0.0,4.7,1,0.00,,,0.00,WUHU216HW,2013-10-14 19:34:00,
2013-10-14 12:39:00,55.8,0.1,30.22,North,0,0.0,4.7,1,0.00,,,0.00,WUHU216HW,2013-10-14 19:39:00,
2013-10-14 12:44:00,55.8,0.1,30.22,North,0,0.0,0.0,1,0.00,,,0.00,WUHU216HW,2013-10-14 19:44:00,
2013-10-14 12:49:00,56.9,0.8,30.22,NW,315,1.8,1.8,1,0.00,,,0.00,WUHU216HW,2013-10-14 19:49:00,
2013-10-14 12:54:00,57.2,1.1,30.22,West,270,2.5,4.3,1,0.00,,,0.00,WUHU216HW,2013-10-14 19:54:00,
2013-10-14 12:59:00,58.0,1.6,30.22,NNW,338,1.1,6.0,1,0.00,,,0.00,WUHU216HW,2013-10-14 19:59:00,
2013-10-14 13:04:00,58.0,1.6,30.21,ENE,68,1.1,6.0,1,0.00,,,0.00,WUHU216HW,2013-10-14 20:04:00,
2013-10-14 13:09:00,59.2,2.7,30.21,West,270,1.1,3.6,1,0.00,,,0.00,WUHU216HW,2013-10-14 20:09:00,
2013-10-14 13:14:00,60.7,3.8,30.21,West,270,1.6,2.9,1,0.00,,,0.00,WUHU216HW,2013-10-14 20:14:00,
2013-10-14 13:19:00,61.4,4.4,30.21,NE,45,1.1,1.8,1,0.00,,,0.00,WUHU216HW,2013-10-14 20:19:00,
2013-10-14 13:24:00,61.6,4.5,30.21,WNW,293,1.3,1.3,1,0.00,,,0.00,WUHU216HW,2013-10-14 20:24:00,
2013-10-14 13:29:00,61.6,4.5,30.21,NNW,338,1.6,1.6,1,0.00,,,0.00,WUHU216HW,2013-10-14 20:29:00,
2013-10-14 13:34:00,61.2,4.2,30.21,NNW,338,2.5,2.5,1,0.00,,,0.00,WUHU216HW,2013-10-14 20:34:00,
2013-10-14 13:39:00,60.5,3.7,30.21,NW,315,3.1,4.7,1,0.00,,,0.00,WUHU216HW,2013-10-14 20:39:00,
2013-10-14 13:44:00,61.0,4.2,30.21,West,270,2.9,4.7,1,0.00,,,0.00,WUHU216HW,2013-10-14 20:44:00,
2013-10-14 13:49:00,61.6,4.5,30.21,West,270,2.9,2.9,1,0.00,,,0.00,WUHU216HW,2013-10-14 20:49:00,
2013-10-14 13:54:00,61.0,4.2,30.20,North,0,0.0,2.9,1,0.00,,,0.00,WUHU216HW,2013-10-14 20:54:00,
2013-10-14 13:59:00,61.0,4.2,30.21,North,0,0.0,0.0,1,0.00,,,0.00,WUHU216HW,2013-10-14 20:59:00,
2013-10-14 14:02:00,62.1,5.0,30.20,WSW,248,1.1,1.1,1,0.00,,,0.00,WUHU216HW,2013-10-14 21:02:00,
2013-10-14 14:07:00,62.8,5.5,30.20,NW,315,3.4,3.4,1,0.00,,,0.00,WUHU216HW,2013-10-14 21:07:00,
2013-10-14 14:12:00,61.2,4.2,30.20,WSW,248,2.5,3.4,1,0.00,,,0.00,WUHU216HW,2013-10-14 21:12:00,
2013-10-14 14:17:00,60.1,3.4,30.20,SSW,203,1.1,3.4,1,0.00,,,0.00,WUHU216HW,2013-10-14 21:17:00,
2013-10-14 14:22:00,59.4,2.8,30.19,South,180,0.4,2.7,1,0.00,,,0.00,WUHU216HW,2013-10-14 21:22:00,
2013-10-14 14:27:00,59.2,2.7,30.19,NNW,338,4.0,4.0,1,0.00,,,0.00,WUHU216HW,2013-10-14 21:27:00,
2013-10-14 14:32:00,59.4,2.8,30.19,WSW,248,1.8,4.0,1,0.00,,,0.00,WUHU216HW,2013-10-14 21:32:00,
2013-10-14 14:37:00,60.1,3.4,30.19,WNW,293,3.8,4.0,1,0.00,,,0.00,WUHU216HW,2013-10-14 21:37:00,
2013-10-14 14:42:00,59.4,2.8,30.19,NNW,338,1.8,3.8,1,0.00,,,0.00,WUHU216HW,2013-10-14 21:42:00,
2013-10-14 14:47:00,60.1,3.4,30.19,North,0,1.3,3.8,1,0.00,,,0.00,WUHU216HW,2013-10-14 21:47:00,
2013-10-14 14:52:00,59.9,3.2,30.19,WNW,293,1.1,1.8,1,0.00,,,0.00,WUHU216HW,2013-10-14 21:52:00,
2013-10-14 14:57:00,59.9,3.2,30.19,West,270,0.4,1.3,1,0.00,,,0.00,WUHU216HW,2013-10-14 21:57:00,
2013-10-14 15:02:00,61.0,4.2,30.18,North,0,0.4,1.3,1,0.00,,,0.00,WUHU216HW,2013-10-14 22:02:00,
2013-10-14 15:07:00,61.0,4.2,30.19,North,0,0.4,1.3,1,0.00,,,0.00,WUHU216HW,2013-10-14 22:07:00,
2013-10-14 15:12:00,61.6,4.5,30.19,North,0,0.0,0.4,1,0.00,,,0.00,WUHU216HW,2013-10-14 22:12:00,
2013-10-14 15:17:00,61.2,4.2,30.19,NNW,338,0.4,0.4,1,0.00,,,0.00,WUHU216HW,2013-10-14 22:17:00,
2013-10-14 15:22:00,61.0,4.2,30.19,North,0,0.0,0.4,1,0.00,,,0.00,WUHU216HW,2013-10-14 22:22:00,
2013-10-14 15:27:00,63.0,5.7,30.18,West,270,0.7,0.7,1,0.00,,,0.00,WUHU216HW,2013-10-14 22:27:00,
2013-10-14 15:32:00,64.3,6.6,30.18,SSW,203,2.0,3.6,1,0.00,,,0.00,WUHU216HW,2013-10-14 22:32:00,
2013-10-14 15:37:00,64.6,6.9,30.18,NNW,338,0.7,3.6,1,0.00,,,0.00,WUHU216HW,2013-10-14 22:37:00,
2013-10-14 15:42:00,64.8,6.9,30.18,SW,225,1.1,2.0,1,0.00,,,0.00,WUHU216HW,2013-10-14 22:42:00,
2013-10-14 15:47:00,65.2,7.2,30.18,WSW,248,0.4,2.5,1,0.00,,,0.00,WUHU216HW,2013-10-14 22:47:00,
2013-10-14 15:52:00,65.0,7.1,30.18,NW,315,0.4,2.5,1,0.00,,,0.00,WUHU216HW,2013-10-14 22:52:00,
2013-10-14 15:57:00,66.1,7.9,30.18,WSW,248,2.2,2.2,1,0.00,,,0.00,WUHU216HW,2013-10-14 22:57:00,
2013-10-14 16:02:00,65.2,7.2,30.18,North,0,0.4,2.2,1,0.00,,,0.00,WUHU216HW,2013-10-14 23:02:00,
2013-10-14 16:07:00,65.5,7.6,30.18,West,270,0.4,2.2,1,0.00,,,0.00,WUHU216HW,2013-10-14 23:07:00,
2013-10-14 16:12:00,66.6,8.4,30.18,SW,225,0.9,1.1,1,0.00,,,0.00,WUHU216HW,2013-10-14 23:12:00,
2013-10-14 16:17:00,66.2,8.1,30.18,NW,315,1.1,1.1,1,0.00,,,0.00,WUHU216HW,2013-10-14 23:17:00,
2013-10-14 16:22:00,63.9,6.3,30.18,NW,315,4.0,4.0,1,0.00,,,0.00,WUHU216HW,2013-10-14 23:22:00,
2013-10-14 16:27:00,62.6,5.4,30.18,North,0,0.0,4.0,1,0.00,,,0.00,WUHU216HW,2013-10-14 23:27:00,
2013-10-14 16:32:00,63.7,6.1,30.18,North,0,0.0,4.0,1,0.00,,,0.00,WUHU216HW,2013-10-14 23:32:00,
2013-10-14 16:37:00,64.4,6.7,30.18,North,0,0.0,0.0,1,0.00,,,0.00,WUHU216HW,2013-10-14 23:37:00,
2013-10-14 16:42:00,64.8,6.9,30.18,West,270,1.8,1.8,1,0.00,,,0.00,WUHU216HW,2013-10-14 23:42:00,
2013-10-14 16:47:00,64.4,6.7,30.17,NNE,23,0.0,1.8,1,0.00,,,0.00,WUHU216HW,2013-10-14 23:47:00,
2013-10-14 16:52:00,63.0,5.7,30.17,WNW,293,0.4,1.3,1,0.00,,,0.00,WUHU216HW,2013-10-14 23:52:00,
2013-10-14 16:57:00,61.6,4.5,30.17,North,0,1.1,1.3,1,0.00,,,0.00,WUHU216HW,2013-10-14 23:57:00,
2013-10-14 17:02:00,60.5,3.7,30.17,WNW,293,1.3,1.3,1,0.00,,,0.00,WUHU216HW,2013-10-15 00:02:00,
2013-10-14 17:07:00,59.9,3.2,30.18,NNW,338,0.0,1.3,1,0.00,,,0.00,WUHU216HW,2013-10-15 00:07:00,
2013-10-14 17:12:00,59.4,2.8,30.18,WNW,293,0.9,1.6,1,0.00,,,0.00,WUHU216HW,2013-10-15 00:12:00,
2013-10-14 17:17:00,58.3,2.0,30.17,NNW,338,0.7,2.0,1,0.00,,,0.00,WUHU216HW,2013-10-15 00:17:00,
2013-10-14 17:22:00,58.1,1.8,30.17,North,0,0.9,2.0,1,0.00,,,0.00,WUHU216HW,2013-10-15 00:22:00,
2013-10-14 17:27:00,57.6,1.4,30.17,NW,315,0.0,1.6,1,0.00,,,0.00,WUHU216HW,2013-10-15 00:27:00,
2013-10-14 17:32:00,57.2,1.1,30.17,NW,315,0.0,0.9,1,0.00,,,0.00,WUHU216HW,2013-10-15 00:32:00,
2013-10-14 17:35:00,57.2,1.1,30.17,NW,315,0.0,0.0,1,0.00,,,0.00,WUHU216HW,2013-10-15 00:35:00,
2013-10-14 17:37:00,57.2,1.1,30.17,NW,315,0.0,0.0,1,0.00,,,0.00,WUHU216HW,2013-10-15 00:37:00,
2013-10-14 17:42:00,57.2,1.1,30.17,NW,315,0.0,0.0,1,0.00,,,0.00,WUHU216HW,2013-10-15 00:42:00,
2013-10-14 18:00:00,54.2,-1.2,30.17,NW,315,0.0,0.0,1,0.00,,,0.00,WUHU216HW,2013-10-15 01:00:00,
2013-10-14 18:05:00,53.6,-1.6,30.17,NW,315,0.0,0.0,1,0.00,,,0.00,WUHU216HW,2013-10-15 01:05:00,
2013-10-14 18:10:00,52.2,-2.8,30.18,North,0,0.0,0.0,1,0.00,,,0.00,WUHU216HW,2013-10-15 01:10:00,
2013-10-14 18:15:00,51.8,-3.1,30.18,North,0,0.0,0.0,1,0.00,,,0.00,WUHU216HW,2013-10-15 01:15:00,
2013-10-14 18:20:00,51.5,-3.3,30.18,North,0,0.0,0.0,1,0.00,,,0.00,WUHU216HW,2013-10-15 01:20:00,
2013-10-14 18:25:00,51.1,-3.6,30.18,WSW,248,0.0,0.0,1,0.00,,,0.00,WUHU216HW,2013-10-15 01:25:00,
2013-10-14 18:30:00,50.4,-4.2,30.18,WSW,248,0.0,0.0,1,0.00,,,0.00,WUHU216HW,2013-10-15 01:30:00,
2013-10-14 18:35:00,50.4,-4.2,30.18,WSW,248,0.0,0.0,1,0.00,,,0.00,WUHU216HW,2013-10-15 01:35:00,
2013-10-14 18:40:00,49.5,-4.8,30.18,WSW,248,0.0,0.0,1,0.00,,,0.00,WUHU216HW,2013-10-15 01:40:00,
2013-10-14 18:45:00,49.0,-5.2,30.18,WSW,248,0.0,0.0,1,0.00,,,0.00,WUHU216HW,2013-10-15 01:45:00,
2013-10-14 18:50:00,48.6,-5.5,30.18,WSW,248,0.0,0.0,1,0.00,,,0.00,WUHU216HW,2013-10-15 01:50:00,
2013-10-14 18:55:00,48.6,-5.5,30.18,WSW,248,0.0,0.0,1,0.00,,,0.00,WUHU216HW,2013-10-15 01:55:00,
2013-10-14 19:00:00,48.1,-5.9,30.18,WSW,248,0.0,0.0,1,0.00,,,0.00,WUHU216HW,2013-10-15 02:00:00,
2013-10-14 19:05:00,47.7,-6.2,30.18,WSW,248,0.0,0.0,1,0.00,,,0.00,WUHU216HW,2013-10-15 02:05:00,
2013-10-14 19:10:00,47.3,-6.5,30.18,North,0,0.0,0.0,1,0.00,,,0.00,WUHU216HW,2013-10-15 02:10:00,
2013-10-14 19:15:00,47.2,-6.7,30.18,North,0,0.0,0.0,1,0.00,,,0.00,WUHU216HW,2013-10-15 02:15:00,
2013-10-14 19:20:00,46.8,-6.9,30.19,WSW,248,0.0,0.0,1,0.00,,,0.00,WUHU216HW,2013-10-15 02:20:00,
2013-10-14 19:25:00,46.8,-6.9,30.18,WSW,248,0.0,0.0,1,0.00,,,0.00,WUHU216HW,2013-10-15 02:25:00,
2013-10-14 19:30:00,46.3,-7.4,30.18,WSW,248,0.0,0.0,1,0.00,,,0.00,WUHU216HW,2013-10-15 02:30:00,
2013-10-14 19:32:00,45.9,-7.6,30.19,WSW,248,0.0,0.0,1,0.00,,,0.00,WUHU216HW,2013-10-15 02:32:00,
2013-10-14 19:35:00,45.9,-7.6,30.19,WSW,248,0.0,0.0,1,0.00,,,0.00,WUHU216HW,2013-10-15 02:35:00,
2013-10-14 19:40:00,45.9,-7.6,30.19,WSW,248,0.0,0.0,1,0.00,,,0.00,WUHU216HW,2013-10-15 02:40:00,
2013-10-14 20:00:00,44.5,-8.8,30.19,SW,225,0.0,0.0,1,0.00,,,0.00,WUHU216HW,2013-10-15 03:00:00,
2013-10-14 20:05:00,44.1,-9.1,30.19,SW,225,0.0,0.0,1,0.00,,,0.00,WUHU216HW,2013-10-15 03:05:00,
2013-10-14 20:10:00,43.9,-9.2,30.19,SW,225,0.0,0.0,1,0.00,,,0.00,WUHU216HW,2013-10-15 03:10:00,
2013-10-14 20:15:00,43.9,-9.2,30.19,SW,225,0.0,0.0,1,0.00,,,0.00,WUHU216HW,2013-10-15 03:15:00,
2013-10-14 20:20:00,43.7,-9.4,30.19,North,0,0.0,0.0,1,0.00,,,0.00,WUHU216HW,2013-10-15 03:20:00,
2013-10-14 20:25:00,43.7,-9.4,30.19,North,0,0.0,0.0,1,0.00,,,0.00,WUHU216HW,2013-10-15 03:25:00,
2013-10-14 20:30:00,43.6,-9.5,30.19,North,0,0.0,0.0,1,0.00,,,0.00,WUHU216HW,2013-10-15 03:30:00,
2013-10-14 20:35:00,43.6,-9.5,30.19,SW,225,0.0,0.0,1,0.00,,,0.00,WUHU216HW,2013-10-15 03:35:00,
2013-10-14 20:40:00,42.8,-10.1,30.19,SW,225,0.0,0.0,1,0.00,,,0.00,WUHU216HW,2013-10-15 03:40:00,
2013-10-14 20:45:00,42.7,-10.2,30.19,SW,225,0.0,0.0,1,0.00,,,0.00,WUHU216HW,2013-10-15 03:45:00,
2013-10-14 20:50:00,42.7,-10.2,30.19,SW,225,0.0,0.0,1,0.00,,,0.00,WUHU216HW,2013-10-15 03:50:00,
2013-10-14 20:55:00,42.3,-10.4,30.19,SW,225,0.0,0.0,1,0.00,,,0.00,WUHU216HW,2013-10-15 03:55:00,
2013-10-14 21:00:00,42.3,-10.4,30.19,SW,225,0.0,0.0,1,0.00,,,0.00,WUHU216HW,2013-10-15 04:00:00,
2013-10-14 21:01:00,42.3,-10.4,30.19,SW,225,0.0,0.0,1,0.00,,,0.00,WUHU216HW,2013-10-15 04:01:00,
2013-10-14 21:02:00,42.5,-10.3,30.19,SW,225,0.0,0.0,1,0.00,,,0.00,WUHU216HW,2013-10-15 04:02:00,
2013-10-14 21:07:00,42.3,-10.4,30.19,SW,225,0.0,0.0,1,0.00,,,0.00,WUHU216HW,2013-10-15 04:07:00,
2013-10-14 21:12:00,41.8,-10.8,30.19,SW,225,0.0,0.0,1,0.00,,,0.00,WUHU216HW,2013-10-15 04:12:00,
2013-10-14 21:17:00,41.6,-11.0,30.19,SW,225,0.0,0.0,1,0.00,,,0.00,WUHU216HW,2013-10-15 04:17:00,
2013-10-14 21:22:00,41.4,-11.1,30.19,SW,225,0.0,0.0,1,0.00,,,0.00,WUHU216HW,2013-10-15 04:22:00,
2013-10-14 21:27:00,41.2,-11.2,30.20,SW,225,0.0,0.0,1,0.00,,,0.00,WUHU216HW,2013-10-15 04:27:00,
2013-10-14 21:29:00,41.0,-11.3,30.20,SW,225,0.0,0.0,1,0.00,,,0.00,WUHU216HW,2013-10-15 04:29:00,
2013-10-14 21:32:00,41.0,-11.3,30.20,SW,225,0.0,0.0,1,0.00,,,0.00,WUHU216HW,2013-10-15 04:32:00,
2013-10-14 21:37:00,41.0,-11.3,30.20,SW,225,0.0,0.0,1,0.00,,,0.00,WUHU216HW,2013-10-15 04:37:00,
2013-10-14 21:59:00,40.9,-11.5,30.20,SW,225,0.0,0.0,1,0.00,,,0.00,WUHU216HW,2013-10-15 04:59:00,
2013-10-14 22:04:00,40.7,-11.6,30.20,SW,225,0.0,0.7,1,0.00,,,0.00,WUHU216HW,2013-10-15 05:04:00,
2013-10-14 22:09:00,40.1,-12.1,30.20,SW,225,0.0,0.7,1,0.00,,,0.00,WUHU216HW,2013-10-15 05:09:00,
2013-10-14 22:14:00,40.0,-12.2,30.20,SSW,203,0.0,0.4,1,0.00,,,0.00,WUHU216HW,2013-10-15 05:14:00,
2013-10-14 22:19:00,39.6,-12.5,30.20,SSW,203,0.2,0.4,1,0.00,,,0.00,WUHU216HW,2013-10-15 05:19:00,
2013-10-14 22:24:00,39.4,-12.6,30.20,SSW,203,0.0,0.4,1,0.00,,,0.00,WUHU216HW,2013-10-15 05:24:00,
2013-10-14 22:25:00,39.4,-12.6,30.20,SSW,203,0.0,0.0,1,0.00,,,0.00,WUHU216HW,2013-10-15 05:25:00,
2013-10-14 22:29:00,39.4,-12.6,30.20,SSW,203,0.0,0.0,1,0.00,,,0.00,WUHU216HW,2013-10-15 05:29:00,
2013-10-14 22:34:00,39.4,-12.6,30.20,SSW,203,0.0,0.0,1,0.00,,,0.00,WUHU216HW,2013-10-15 05:34:00,
2013-10-14 22:55:00,39.4,-12.6,30.20,North,0,0.0,0.0,1,0.00,,,0.00,WUHU216HW,2013-10-15 05:55:00,
2013-10-14 23:00:00,39.2,-12.8,30.20,North,0,0.0,0.0,1,0.00,,,0.00,WUHU216HW,2013-10-15 06:00:00,
2013-10-14 23:05:00,39.1,-13.0,30.20,North,0,0.0,0.0,1,0.00,,,0.00,WUHU216HW,2013-10-15 06:05:00,
2013-10-14 23:10:00,38.9,-13.0,30.20,North,0,0.0,0.0,1,0.00,,,0.00,WUHU216HW,2013-10-15 06:10:00,
2013-10-14 23:15:00,38.7,-13.2,30.20,NNE,23,0.0,0.0,1,0.00,,,0.00,WUHU216HW,2013-10-15 06:15:00,
2013-10-14 23:20:00,38.5,-13.3,30.20,NNE,23,0.0,0.0,1,0.00,,,0.00,WUHU216HW,2013-10-15 06:20:00,
2013-10-14 23:25:00,38.7,-13.2,30.20,NNE,23,0.0,0.0,1,0.00,,,0.00,WUHU216HW,2013-10-15 06:25:00,
2013-10-14 23:26:00,38.5,-13.3,30.20,NNE,23,0.0,0.0,1,0.00,,,0.00,WUHU216HW,2013-10-15 06:26:00,
2013-10-14 23:30:00,38.5,-13.3,30.20,NNE,23,0.0,0.0,1,0.00,,,0.00,WUHU216HW,2013-10-15 06:30:00,
2013-10-14 23:35:00,38.5,-13.3,30.20,NNE,23,0.0,0.0,1,0.00,,,0.00,WUHU216HW,2013-10-15 06:35:00,
2013-10-14 23:56:00,37.6,-14.0,30.20,SSW,203,0.0,0.0,1,0.00,,,0.00,WUHU216HW,2013-10-15 06:56:00,